createdAt,value
2017-09-27T00:00:39.620Z,85.07
2017-09-27T00:03:05.649Z,90.33
2017-09-27T00:05:31.748Z,91.43
2017-09-27T00:07:57.831Z,81.57
2017-09-27T00:10:24.641Z,92.90
2017-09-27T00:12:50.690Z,84.13
2017-09-27T00:15:16.752Z,90.47
2017-09-27T00:17:42.808Z,82.20
2017-09-27T00:20:08.861Z,78.37
2017-09-27T00:22:34.930Z,88.93
2017-09-27T00:25:00.969Z,102.07
2017-09-27T00:27:27.032Z,89.47
2017-09-27T00:29:53.082Z,91.93
2017-09-27T00:32:19.150Z,97.67
2017-09-27T00:34:45.235Z,89.33
2017-09-27T00:37:11.372Z,93.57
2017-09-27T00:39:38.187Z,89.70
2017-09-27T00:42:04.985Z,85.90
2017-09-27T00:44:31.042Z,87.73
2017-09-27T00:46:57.113Z,89.70
2017-09-27T00:49:23.172Z,85.60
2017-09-27T00:51:49.250Z,83.13
2017-09-27T00:54:15.308Z,103.50
2017-09-27T00:56:41.377Z,90.13
2017-09-27T00:59:08.234Z,96.47
2017-09-27T01:01:34.293Z,92.00
2017-09-27T01:04:00.338Z,99.47
2017-09-27T01:06:26.390Z,93.03
2017-09-27T01:08:52.447Z,87.60
2017-09-27T01:11:19.249Z,95.30
2017-09-27T01:13:45.338Z,90.13
2017-09-27T01:16:11.393Z,99.67
2017-09-27T01:18:37.468Z,87.20
2017-09-27T01:21:03.541Z,95.53
2017-09-27T01:23:29.618Z,91.53
2017-09-27T03:07:20.928Z,96.73
2017-09-27T03:09:47.077Z,106.47
2017-09-27T03:12:13.127Z,103.27
2017-09-27T03:14:39.197Z,95.20
2017-09-27T03:17:06.119Z,97.83
2017-09-27T03:19:32.905Z,109.17
2017-09-27T03:21:58.933Z,100.17
2017-09-27T03:24:26.461Z,93.90
2017-09-27T03:26:52.505Z,108.60
2017-09-27T03:29:19.289Z,94.97
2017-09-27T03:31:45.349Z,95.60
2017-09-27T03:34:12.131Z,101.17
2017-09-27T03:36:38.180Z,88.17
2017-09-27T03:39:04.982Z,107.83
2017-09-27T03:41:31.029Z,83.43
2017-09-27T03:43:57.073Z,96.00
2017-09-27T03:46:23.113Z,103.73
2017-09-27T03:48:49.141Z,96.00
2017-09-27T03:51:15.913Z,100.20
2017-09-27T03:53:41.951Z,92.10
2017-09-27T03:56:07.989Z,103.70
2017-09-27T03:58:34.757Z,115.47
2017-09-27T04:01:00.833Z,103.60
2017-09-27T04:03:26.893Z,110.97
2017-09-27T04:05:53.673Z,101.90
2017-09-27T04:08:19.733Z,108.93
2017-09-27T04:10:45.789Z,90.67
2017-09-27T04:13:11.853Z,97.53
2017-09-27T04:15:37.902Z,106.47
2017-09-27T04:18:03.949Z,95.70
2017-09-27T04:20:32.098Z,109.17
2017-09-27T04:22:58.174Z,105.27
2017-09-27T04:25:24.238Z,101.70
2017-09-27T04:27:50.298Z,111.50
2017-09-27T04:30:17.080Z,94.13
2017-09-27T04:32:43.128Z,104.23
2017-09-27T04:35:09.177Z,101.73
2017-09-27T04:37:35.247Z,95.33
2017-09-27T04:40:01.305Z,105.83
2017-09-27T04:42:27.349Z,96.67
2017-09-27T04:44:54.145Z,105.30
2017-09-27T04:47:20.181Z,110.77
2017-09-27T04:49:46.985Z,104.30
2017-09-27T04:52:13.046Z,113.50
2017-09-27T04:54:39.101Z,102.67
2017-09-27T04:57:05.149Z,114.67
2017-09-27T04:59:31.917Z,119.43
2017-09-27T05:01:57.960Z,109.37
2017-09-27T05:04:23.980Z,115.53
2017-09-27T05:06:50.034Z,110.10
2017-09-27T05:09:16.054Z,116.10
2017-09-27T05:11:42.120Z,114.90
2017-09-27T05:14:08.889Z,104.10
2017-09-27T05:16:34.918Z,102.67
2017-09-27T05:19:01.009Z,111.47
2017-09-27T05:21:27.098Z,102.77
2017-09-27T05:23:53.173Z,114.00
2017-09-27T05:26:19.207Z,126.53
2017-09-27T05:28:45.230Z,102.17
2017-09-27T05:31:11.310Z,116.00
2017-09-27T05:33:38.073Z,117.77
2017-09-27T05:36:11.185Z,107.10
2017-09-27T05:38:37.234Z,100.73
2017-09-27T05:41:03.333Z,112.97
2017-09-27T05:43:29.385Z,105.23
2017-09-27T05:45:55.460Z,113.47
2017-09-27T05:48:21.517Z,111.70
2017-09-27T05:50:47.567Z,105.07
2017-09-27T05:53:13.623Z,123.90
2017-09-27T05:55:39.669Z,116.07
2017-09-27T05:58:05.682Z,112.17
2017-09-27T06:00:32.489Z,121.60
2017-09-27T06:02:58.546Z,123.10
2017-09-27T06:05:24.755Z,118.70
2017-09-27T06:07:50.958Z,127.20
2017-09-27T06:10:16.988Z,113.83
2017-09-27T06:12:43.197Z,114.23
2017-09-27T06:15:09.237Z,108.43
2017-09-27T06:17:35.279Z,124.27
2017-09-27T06:20:02.071Z,103.73
2017-09-27T06:22:28.126Z,110.90
2017-09-27T06:24:54.194Z,126.83
2017-09-27T06:27:20.317Z,125.17
2017-09-27T06:29:46.425Z,115.43
2017-09-27T06:32:12.469Z,124.23
2017-09-27T06:34:38.573Z,115.67
2017-09-27T06:37:05.390Z,108.83
2017-09-27T06:39:32.184Z,119.30
2017-09-27T06:41:58.264Z,109.03
2017-09-27T06:44:24.324Z,109.37
2017-09-27T06:46:51.130Z,107.43
2017-09-27T06:49:17.202Z,118.23
2017-09-27T06:51:43.255Z,115.60
2017-09-27T06:54:09.334Z,115.50
2017-09-27T06:56:35.413Z,122.73
2017-09-27T06:59:01.465Z,132.07
2017-09-27T07:01:27.506Z,120.03
2017-09-27T07:03:54.330Z,114.00
2017-09-27T07:06:20.462Z,116.13
2017-09-27T07:08:46.533Z,127.53
2017-09-27T07:11:12.594Z,127.90
2017-09-27T07:13:38.676Z,119.30
2017-09-27T07:16:05.482Z,116.30
2017-09-27T07:18:31.561Z,114.83
2017-09-27T07:20:57.622Z,125.77
2017-09-27T07:23:24.425Z,136.23
2017-09-27T07:25:50.473Z,125.73
2017-09-27T07:28:17.265Z,132.57
2017-09-27T07:30:43.415Z,135.87
2017-09-27T07:33:09.481Z,138.60
2017-09-27T07:35:35.524Z,153.53
2017-09-27T07:38:02.318Z,128.77
2017-09-27T07:40:28.391Z,147.80
2017-09-27T07:42:54.451Z,142.00
2017-09-27T07:45:20.521Z,125.07
2017-09-27T07:47:46.601Z,132.33
2017-09-27T07:50:12.649Z,131.80
2017-09-27T07:52:38.690Z,139.73
2017-09-27T07:55:04.766Z,116.80
2017-09-27T07:57:30.825Z,130.37
2017-09-27T07:59:57.649Z,148.47
2017-09-27T08:02:24.474Z,140.47
2017-09-27T08:04:50.536Z,144.90
2017-09-27T08:07:16.569Z,134.63
2017-09-27T08:09:42.645Z,140.17
2017-09-27T08:12:08.693Z,134.03
2017-09-27T08:14:35.509Z,154.07
2017-09-27T08:17:01.561Z,113.10
2017-09-27T08:19:27.619Z,146.20
2017-09-27T08:21:53.677Z,132.37
2017-09-27T08:24:19.751Z,151.70
2017-09-27T08:26:45.799Z,133.13
2017-09-27T08:29:11.818Z,125.17
2017-09-27T08:31:37.868Z,132.80
2017-09-27T08:34:03.895Z,138.97
2017-09-27T08:36:29.966Z,133.43
2017-09-27T08:38:56.023Z,128.87
2017-09-27T08:41:22.828Z,126.63
2017-09-27T08:43:48.868Z,124.40
2017-09-27T08:46:15.640Z,136.20
2017-09-27T08:48:41.727Z,136.50
2017-09-27T08:51:07.808Z,144.20
2017-09-27T08:53:33.890Z,125.00
2017-09-27T08:55:59.941Z,142.93
2017-09-27T08:58:26.041Z,127.93
2017-09-27T09:00:52.825Z,120.90
2017-09-27T09:03:18.902Z,114.77
2017-09-27T09:05:44.938Z,98.53
2017-09-27T09:08:11.093Z,115.97
2017-09-27T09:10:37.149Z,110.63
2017-09-27T09:13:03.222Z,117.43
2017-09-27T09:15:29.272Z,133.67
2017-09-27T09:17:55.331Z,105.80
2017-09-27T09:20:21.382Z,136.30
2017-09-27T09:22:47.417Z,112.30
2017-09-27T09:25:13.461Z,112.73
2017-09-27T09:27:40.275Z,114.03
2017-09-27T09:30:07.078Z,113.17
2017-09-27T09:32:33.122Z,105.00
2017-09-27T09:34:59.188Z,104.50
2017-09-27T09:37:25.229Z,117.20
2017-09-27T09:39:52.055Z,100.27
2017-09-27T09:42:18.851Z,115.33
2017-09-27T09:44:44.903Z,93.13
2017-09-27T09:47:11.702Z,109.77
2017-09-27T09:49:37.745Z,100.97
2017-09-27T09:52:03.789Z,100.33
2017-09-27T09:54:29.833Z,111.00
2017-09-27T09:56:55.924Z,93.60
2017-09-27T09:59:21.991Z,90.17
2017-09-27T10:01:48.054Z,94.40
2017-09-27T10:04:14.105Z,84.53
2017-09-27T10:06:40.141Z,98.90
2017-09-27T10:09:06.178Z,92.90
2017-09-27T10:11:32.339Z,84.40
2017-09-27T10:13:58.371Z,91.67
2017-09-27T10:16:24.417Z,89.77
2017-09-27T10:18:50.459Z,95.53
2017-09-27T10:21:16.485Z,88.30
2017-09-27T10:23:42.529Z,99.77
2017-09-27T10:26:08.578Z,75.30
2017-09-27T10:28:34.642Z,78.10
2017-09-27T10:31:00.699Z,87.63
2017-09-27T10:33:26.754Z,77.47
2017-09-27T10:35:52.807Z,90.47
2017-09-27T10:38:18.868Z,76.70
2017-09-27T10:40:44.893Z,83.50
2017-09-27T10:43:11.743Z,75.13
2017-09-27T10:45:37.815Z,76.77
2017-09-27T10:48:03.858Z,73.33
2017-09-27T10:50:31.679Z,66.77
2017-09-27T10:52:59.500Z,69.97
2017-09-27T10:55:27.341Z,71.53
2017-09-27T10:57:55.156Z,64.50
2017-09-27T11:00:22.997Z,72.67
2017-09-27T11:02:50.844Z,67.93
2017-09-27T11:05:18.670Z,66.83
2017-09-27T11:07:46.568Z,83.07
2017-09-27T11:10:13.339Z,73.30
2017-09-27T11:12:39.365Z,73.87
2017-09-27T11:15:05.384Z,70.00
2017-09-27T11:17:31.397Z,83.33
2017-09-27T11:19:57.422Z,76.10
2017-09-27T11:22:23.461Z,77.17
2017-09-27T11:24:49.510Z,80.00
2017-09-27T11:27:15.576Z,74.90
2017-09-27T11:29:41.665Z,67.77
2017-09-27T11:32:07.705Z,72.33
2017-09-27T11:34:35.650Z,68.20
2017-09-27T11:37:03.455Z,58.43
2017-09-27T11:39:31.287Z,61.40
2017-09-27T11:41:59.092Z,60.23
2017-09-27T11:44:26.908Z,58.97
2017-09-27T11:46:54.714Z,69.50
2017-09-27T11:49:22.522Z,58.20
2017-09-27T11:51:50.328Z,66.20
2017-09-27T11:54:18.139Z,58.67
2017-09-27T11:56:45.982Z,56.87
2017-09-27T11:59:13.794Z,57.00
2017-09-27T12:01:41.634Z,53.77
2017-09-27T12:04:09.465Z,50.67
2017-09-27T12:06:37.290Z,58.17
2017-09-27T12:09:05.110Z,59.83
2017-09-27T12:11:32.944Z,58.77
2017-09-27T12:14:00.787Z,60.67
2017-09-27T12:16:28.609Z,61.33
2017-09-27T12:18:56.562Z,58.87
2017-09-27T12:21:24.389Z,53.00
2017-09-27T12:23:52.206Z,55.53
2017-09-27T12:26:20.013Z,54.33
2017-09-27T12:28:47.846Z,51.50
2017-09-27T12:31:15.654Z,61.50
2017-09-27T12:33:43.479Z,50.00
2017-09-27T12:36:11.314Z,47.77
2017-09-27T12:38:37.365Z,47.40
2017-09-27T12:41:03.395Z,47.67
2017-09-27T12:43:29.444Z,51.70
2017-09-27T12:45:55.515Z,49.03
2017-09-27T12:48:22.377Z,49.10
2017-09-27T12:50:48.431Z,57.30
2017-09-27T12:53:14.465Z,50.27
2017-09-27T12:55:41.236Z,48.67
2017-09-27T12:58:07.293Z,52.90
2017-09-27T13:00:34.081Z,54.57
2017-09-27T13:03:00.147Z,46.57
2017-09-27T13:05:26.207Z,49.47
2017-09-27T13:07:52.249Z,51.13
2017-09-27T13:10:18.279Z,43.20
2017-09-27T13:12:44.313Z,49.37
2017-09-27T13:15:10.350Z,51.60
2017-09-27T13:17:36.397Z,53.50
2017-09-27T13:20:03.197Z,51.00
2017-09-27T13:22:30.001Z,50.50
2017-09-27T13:24:56.797Z,56.30
2017-09-27T13:27:22.845Z,57.83
2017-09-27T13:29:48.889Z,63.00
2017-09-27T13:32:14.933Z,64.87
2017-09-27T13:34:40.975Z,65.93
2017-09-27T13:37:07.029Z,60.10
2017-09-27T13:39:33.082Z,64.13
2017-09-27T13:41:59.129Z,69.47
2017-09-27T13:44:25.890Z,65.63
2017-09-27T13:46:51.932Z,61.57
2017-09-27T13:49:17.977Z,62.60
2017-09-27T13:51:44.761Z,64.00
2017-09-27T13:54:10.821Z,63.70
2017-09-27T13:56:36.930Z,77.23
2017-09-27T13:59:03.017Z,65.27
2017-09-27T14:01:29.813Z,62.57
2017-09-27T14:03:55.881Z,66.57
2017-09-27T14:06:21.932Z,62.33
2017-09-27T14:08:47.986Z,72.70
2017-09-27T14:11:14.038Z,65.97
2017-09-27T14:13:40.105Z,64.83
2017-09-27T14:16:06.901Z,69.53
2017-09-27T14:18:32.967Z,74.00
2017-09-27T14:20:59.104Z,67.03
2017-09-27T14:23:25.374Z,72.13
2017-09-27T14:25:51.524Z,68.47
2017-09-27T14:28:17.588Z,76.13
2017-09-27T14:30:44.749Z,80.43
2017-09-27T14:33:10.829Z,72.30
2017-09-27T14:35:37.614Z,66.47
2017-09-27T14:38:03.650Z,65.90
2017-09-27T14:40:30.517Z,66.77
2017-09-27T14:42:56.559Z,72.50
2017-09-27T14:45:22.612Z,75.17
2017-09-27T14:47:48.743Z,67.90
2017-09-27T14:50:14.829Z,66.60
2017-09-27T14:52:41.630Z,67.87
2017-09-27T14:55:11.191Z,75.57
2017-09-27T14:57:37.245Z,67.40
2017-09-27T15:00:04.038Z,63.57
2017-09-27T15:02:30.139Z,64.67
2017-09-27T15:04:56.414Z,71.07
2017-09-27T15:07:22.487Z,66.63
2017-09-27T15:09:48.637Z,67.70
2017-09-27T15:12:14.745Z,65.00
2017-09-27T15:14:40.789Z,63.70
2017-09-27T15:17:06.851Z,69.60
2017-09-27T15:19:33.678Z,66.93
2017-09-27T15:22:00.466Z,71.50
2017-09-27T15:24:26.530Z,80.37
2017-09-27T15:26:52.695Z,68.53
2017-09-27T15:29:18.752Z,68.67
2017-09-27T15:31:45.230Z,66.17
2017-09-27T15:34:11.339Z,64.90
2017-09-27T15:36:37.375Z,77.80
2017-09-27T15:39:04.187Z,69.60
2017-09-27T15:41:30.224Z,77.80
2017-09-27T15:43:56.297Z,73.97
2017-09-27T15:46:23.119Z,69.17
2017-09-27T15:48:49.964Z,66.27
2017-09-27T15:51:16.745Z,66.53
2017-09-27T15:53:42.837Z,71.40
2017-09-27T15:56:08.890Z,71.10
2017-09-27T15:58:34.963Z,68.23
2017-09-27T16:01:01.066Z,67.97
2017-09-27T16:03:27.147Z,78.80
2017-09-27T16:05:53.301Z,69.13
2017-09-27T16:08:20.351Z,68.10
2017-09-27T16:10:46.402Z,70.77
2017-09-27T16:13:12.469Z,77.67
2017-09-27T16:15:38.540Z,75.73
2017-09-27T16:18:04.653Z,71.47
2017-09-27T16:20:30.726Z,71.60
2017-09-27T16:22:56.790Z,75.20
2017-09-27T16:25:22.903Z,75.60
2017-09-27T16:27:48.984Z,86.47
2017-09-27T16:30:17.028Z,68.37
2017-09-27T16:32:43.093Z,92.60
2017-09-27T16:35:09.148Z,87.70
2017-09-27T16:37:35.972Z,76.50
2017-09-27T16:40:02.021Z,81.93
2017-09-27T16:42:29.144Z,82.90
2017-09-27T16:44:55.197Z,83.80
2017-09-27T16:47:21.309Z,83.77
2017-09-27T16:49:47.358Z,90.30
2017-09-27T16:52:13.413Z,92.53
2017-09-27T16:54:39.465Z,96.97
2017-09-27T16:57:06.022Z,90.90
2017-09-27T16:59:34.209Z,92.87
2017-09-27T17:02:00.304Z,98.60
2017-09-27T17:04:26.373Z,102.50
2017-09-27T17:06:52.412Z,84.57
2017-09-27T17:09:18.513Z,95.20
2017-09-27T17:11:45.302Z,93.40
2017-09-27T17:14:11.382Z,99.30
2017-09-27T17:16:37.446Z,97.50
2017-09-27T17:19:03.509Z,99.20
2017-09-27T17:21:30.318Z,94.47
2017-09-27T17:23:56.410Z,107.53
2017-09-27T17:26:22.467Z,95.27
2017-09-27T17:28:48.509Z,107.17
2017-09-27T17:31:14.561Z,103.17
2017-09-27T17:33:40.809Z,98.40
2017-09-27T17:36:06.853Z,97.93
2017-09-27T17:38:32.937Z,102.60
2017-09-27T17:40:59.030Z,93.60
2017-09-27T17:43:25.100Z,101.13
2017-09-27T17:45:51.186Z,103.40
2017-09-27T17:48:17.297Z,101.13
2017-09-27T17:50:43.415Z,97.93
2017-09-27T17:53:09.442Z,120.33
2017-09-27T17:55:35.549Z,115.53
2017-09-27T17:58:01.654Z,113.53
2017-09-27T18:00:27.734Z,106.80
2017-09-27T18:02:53.804Z,102.03
2017-09-27T18:05:25.680Z,104.80
2017-09-27T18:07:51.749Z,105.77
2017-09-27T18:13:30.993Z,111.60
2017-09-27T18:16:04.022Z,118.37
2017-09-27T18:18:30.894Z,108.23
2017-09-27T18:20:56.961Z,112.17
2017-09-27T18:23:23.039Z,124.40
2017-09-27T18:25:49.105Z,110.20
2017-09-27T18:28:15.141Z,97.90
2017-09-27T18:30:41.185Z,105.77
2017-09-27T18:33:07.210Z,112.87
2017-09-27T18:35:33.281Z,100.83
2017-09-27T18:37:59.345Z,119.10
2017-09-27T18:40:25.402Z,115.57
2017-09-27T18:42:51.478Z,106.07
2017-09-27T18:45:17.526Z,112.43
2017-09-27T18:47:43.587Z,102.47
2017-09-27T18:50:10.362Z,111.90
2017-09-27T18:52:36.421Z,112.60
2017-09-27T18:55:03.225Z,108.23
2017-09-27T18:57:29.332Z,102.00
2017-09-27T18:59:55.514Z,99.20
2017-09-27T19:02:21.593Z,102.30
2017-09-27T19:04:48.421Z,102.83
2017-09-27T19:07:14.504Z,109.20
2017-09-27T19:09:40.590Z,104.17
2017-09-27T19:12:06.657Z,134.10
2017-09-27T19:14:32.739Z,114.33
2017-09-27T19:16:58.797Z,105.57
2017-09-27T19:19:24.885Z,128.10
2017-09-27T19:21:50.938Z,117.03
2017-09-27T19:24:16.992Z,115.53
2017-09-27T19:26:43.790Z,116.07
2017-09-27T19:29:10.589Z,129.50
2017-09-27T19:31:36.617Z,123.07
2017-09-27T19:34:02.677Z,124.17
2017-09-27T19:36:28.694Z,128.30
2017-09-27T19:38:54.761Z,122.53
2017-09-27T19:41:20.808Z,123.23
2017-09-27T19:43:46.854Z,133.43
2017-09-27T19:46:12.917Z,141.37
2017-09-27T19:48:38.954Z,144.23
2017-09-27T19:51:05.036Z,128.27
2017-09-27T19:53:31.811Z,128.57
2017-09-27T19:55:57.870Z,137.80
2017-09-27T19:58:23.974Z,126.27
2017-09-27T20:00:50.077Z,128.13
2017-09-27T20:03:16.154Z,125.50
2017-09-27T20:05:42.268Z,132.30
2017-09-27T20:08:08.368Z,125.73
2017-09-27T20:10:34.454Z,138.90
2017-09-27T20:13:00.552Z,144.37
2017-09-27T20:15:26.637Z,147.47
2017-09-27T20:17:52.761Z,146.37
2017-09-27T20:20:18.825Z,146.97
2017-09-27T20:22:44.890Z,159.40
2017-09-27T20:25:10.934Z,161.63
2017-09-27T20:27:36.994Z,134.10
2017-09-27T20:30:03.081Z,148.17
2017-09-27T20:32:29.922Z,142.03
2017-09-27T20:34:56.320Z,133.53
2017-09-27T20:37:23.139Z,136.23
2017-09-27T20:39:49.222Z,109.73
2017-09-27T20:42:15.306Z,115.47
2017-09-27T20:44:41.367Z,119.50
2017-09-27T20:47:07.462Z,121.73
2017-09-27T20:49:33.596Z,123.83
2017-09-27T20:52:00.426Z,113.63
2017-09-27T20:54:27.258Z,118.67
2017-09-27T20:56:54.073Z,108.57
2017-09-27T20:59:20.138Z,119.43
2017-09-27T21:01:46.190Z,123.63
2017-09-27T21:04:12.248Z,125.27
2017-09-27T21:06:38.313Z,97.10
2017-09-27T21:09:04.377Z,102.67
2017-09-27T21:11:30.452Z,94.07
2017-09-27T21:13:57.245Z,92.20
2017-09-27T21:16:23.315Z,83.30
2017-09-27T21:18:49.409Z,86.77
2017-09-27T21:21:15.466Z,90.13
2017-09-27T21:23:41.525Z,79.63
2017-09-27T21:26:07.639Z,92.57
2017-09-27T21:28:33.702Z,79.20
2017-09-27T21:30:59.788Z,83.23
2017-09-27T21:33:25.878Z,84.30
2017-09-27T21:35:51.976Z,86.03
2017-09-27T21:38:18.030Z,75.60
2017-09-27T21:40:44.080Z,87.97
2017-09-27T21:43:10.206Z,73.40
2017-09-27T21:45:37.055Z,84.40
2017-09-27T21:48:03.146Z,72.20
2017-09-27T21:50:29.201Z,68.43
2017-09-27T21:52:55.271Z,74.47
2017-09-27T21:55:21.318Z,66.90
2017-09-27T21:57:48.151Z,69.70
2017-09-27T22:00:14.242Z,75.57
2017-09-27T22:02:41.114Z,76.23
2017-09-27T22:05:07.172Z,65.50
2017-09-27T22:07:33.285Z,62.70
2017-09-27T22:09:59.349Z,76.10
2017-09-27T22:12:26.973Z,73.20
2017-09-27T22:14:53.042Z,87.27
2017-09-27T22:17:19.105Z,76.63
2017-09-27T22:19:45.910Z,64.50
2017-09-27T22:22:11.990Z,72.63
2017-09-27T22:24:38.039Z,73.23
2017-09-27T22:27:04.086Z,75.20
2017-09-27T22:29:30.126Z,74.70
2017-09-27T22:31:56.177Z,64.27
2017-09-27T22:34:23.717Z,65.90
2017-09-27T22:36:50.568Z,71.67
2017-09-27T22:39:16.685Z,66.23
2017-09-27T22:41:42.757Z,73.50
2017-09-27T22:44:08.842Z,69.23
2017-09-27T22:46:35.929Z,74.83
2017-09-27T22:49:02.002Z,69.83
2017-09-27T22:51:28.078Z,76.27
2017-09-27T22:53:54.193Z,66.07
2017-09-27T22:56:20.302Z,74.47
2017-09-27T22:58:46.429Z,73.03
2017-09-27T23:01:12.501Z,67.03
2017-09-27T23:03:38.570Z,61.30
2017-09-27T23:06:04.623Z,67.70
2017-09-27T23:08:30.689Z,64.67
2017-09-27T23:10:56.750Z,69.00
2017-09-27T23:13:22.846Z,68.33
2017-09-27T23:15:48.923Z,70.30
2017-09-27T23:18:15.736Z,81.30
2017-09-27T23:20:41.781Z,76.27
2017-09-27T23:23:07.845Z,84.63
2017-09-27T23:25:33.910Z,69.73
2017-09-27T23:28:00.893Z,67.70
2017-09-27T23:30:26.956Z,80.10
2017-09-27T23:32:53.047Z,76.93
2017-09-27T23:35:19.126Z,66.40
2017-09-27T23:37:45.209Z,73.93
2017-09-27T23:40:11.262Z,70.20
2017-09-27T23:42:38.074Z,69.97
2017-09-27T23:45:04.930Z,71.73
2017-09-27T23:47:30.993Z,67.80
2017-09-27T23:49:57.062Z,79.37
2017-09-27T23:52:23.101Z,72.23
2017-09-27T23:54:49.169Z,71.33
2017-09-27T23:57:15.955Z,69.87
2017-09-27T23:59:42.038Z,81.83
